sensor_id;sensor_type;location;lat;lon;timestamp;temperature;humidity
7461;DHT22;6757;52.258;12.840;2022-11-25T00:01:33;2.90;99.90
7461;DHT22;6757;52.258;12.840;2022-11-25T00:04:00;2.90;99.90
7461;DHT22;6757;52.258;12.840;2022-11-25T00:06:28;2.90;99.90
7461;DHT22;6757;52.258;12.840;2022-11-25T00:08:58;2.90;99.90
7461;DHT22;6757;52.258;12.840;2022-11-25T00:11:28;3.00;99.90
7461;DHT22;6757;52.258;12.840;2022-11-25T00:13:56;2.90;99.90
7461;DHT22;6757;52.258;12.840;2022-11-25T00:16:24;2.90;99.90
7461;DHT22;6757;52.258;12.840;2022-11-25T00:18:52;2.90;99.90
7461;DHT22;6757;52.258;12.840;2022-11-25T00:21:22;2.90;99.90
7461;DHT22;6757;52.258;12.840;2022-11-25T00:23:50;2.90;99.90
7461;DHT22;6757;52.258;12.840;2022-11-25T00:26:20;2.90;99.90
7461;DHT22;6757;52.258;12.840;2022-11-25T00:28:49;2.90;99.90
7461;DHT22;6757;52.258;12.840;2022-11-25T00:31:18;2.90;99.90
7461;DHT22;6757;52.258;12.840;2022-11-25T00:33:49;2.90;99.90
7461;DHT22;6757;52.258;12.840;2022-11-25T00:36:19;2.90;99.90
7461;DHT22;6757;52.258;12.840;2022-11-25T00:38:47;2.90;99.90
7461;DHT22;6757;52.258;12.840;2022-11-25T00:41:20;2.80;99.90
7461;DHT22;6757;52.258;12.840;2022-11-25T00:44:05;2.80;99.90
7461;DHT22;6757;52.258;12.840;2022-11-25T00:46:51;3.00;99.90
7461;DHT22;6757;52.258;12.840;2022-11-25T00:49:18;2.80;99.90
7461;DHT22;6757;52.258;12.840;2022-11-25T00:51:45;2.90;99.90
7461;DHT22;6757;52.258;12.840;2022-11-25T00:54:12;2.90;99.90
7461;DHT22;6757;52.258;12.840;2022-11-25T00:56:40;2.80;99.90
7461;DHT22;6757;52.258;12.840;2022-11-25T00:59:08;2.90;99.90
7461;DHT22;6757;52.258;12.840;2022-11-25T01:01:35;2.80;99.90
7461;DHT22;6757;52.258;12.840;2022-11-25T01:04:03;2.80;99.90
7461;DHT22;6757;52.258;12.840;2022-11-25T01:06:30;2.80;99.90
7461;DHT22;6757;52.258;12.840;2022-11-25T01:08:57;2.80;99.90
7461;DHT22;6757;52.258;12.840;2022-11-25T01:11:25;2.80;99.90
7461;DHT22;6757;52.258;12.840;2022-11-25T01:13:54;2.80;99.90
7461;DHT22;6757;52.258;12.840;2022-11-25T01:16:23;2.80;99.90
7461;DHT22;6757;52.258;12.840;2022-11-25T01:18:50;2.70;99.90
7461;DHT22;6757;52.258;12.840;2022-11-25T01:21:19;2.70;99.90
7461;DHT22;6757;52.258;12.840;2022-11-25T01:23:47;2.60;99.90
7461;DHT22;6757;52.258;12.840;2022-11-25T01:26:16;2.60;99.90
7461;DHT22;6757;52.258;12.840;2022-11-25T01:28:45;2.60;99.90
7461;DHT22;6757;52.258;12.840;2022-11-25T01:31:15;2.50;99.90
7461;DHT22;6757;52.258;12.840;2022-11-25T01:33:44;2.50;99.90
7461;DHT22;6757;52.258;12.840;2022-11-25T01:36:13;2.40;99.90
7461;DHT22;6757;52.258;12.840;2022-11-25T01:38:42;2.40;99.90
7461;DHT22;6757;52.258;12.840;2022-11-25T01:41:11;2.30;99.90
7461;DHT22;6757;52.258;12.840;2022-11-25T01:43:39;2.30;99.90
7461;DHT22;6757;52.258;12.840;2022-11-25T01:46:18;2.20;99.90
7461;DHT22;6757;52.258;12.840;2022-11-25T01:48:50;2.20;99.90
7461;DHT22;6757;52.258;12.840;2022-11-25T01:51:27;2.10;99.90
7461;DHT22;6757;52.258;12.840;2022-11-25T01:54:05;2.10;99.90
7461;DHT22;6757;52.258;12.840;2022-11-25T01:56:41;2.10;99.90
7461;DHT22;6757;52.258;12.840;2022-11-25T01:59:10;2.00;99.90
7461;DHT22;6757;52.258;12.840;2022-11-25T02:01:38;2.00;99.90
7461;DHT22;6757;52.258;12.840;2022-11-25T02:04:06;2.00;99.90
7461;DHT22;6757;52.258;12.840;2022-11-25T02:06:36;1.90;99.90
7461;DHT22;6757;52.258;12.840;2022-11-25T02:09:07;1.90;99.90
7461;DHT22;6757;52.258;12.840;2022-11-25T02:11:38;1.90;99.90
7461;DHT22;6757;52.258;12.840;2022-11-25T02:14:06;1.90;99.90
7461;DHT22;6757;52.258;12.840;2022-11-25T02:16:34;1.90;99.90
7461;DHT22;6757;52.258;12.840;2022-11-25T02:19:03;1.90;99.90
7461;DHT22;6757;52.258;12.840;2022-11-25T02:21:37;1.90;99.90
7461;DHT22;6757;52.258;12.840;2022-11-25T02:24:13;1.90;99.90
7461;DHT22;6757;52.258;12.840;2022-11-25T02:26:45;1.90;99.90
7461;DHT22;6757;52.258;12.840;2022-11-25T02:29:13;1.90;99.90
7461;DHT22;6757;52.258;12.840;2022-11-25T02:31:39;1.90;99.90
7461;DHT22;6757;52.258;12.840;2022-11-25T02:34:06;1.90;99.90
7461;DHT22;6757;52.258;12.840;2022-11-25T02:36:35;1.90;99.90
7461;DHT22;6757;52.258;12.840;2022-11-25T02:39:02;1.90;99.90
7461;DHT22;6757;52.258;12.840;2022-11-25T02:41:31;2.00;99.90
7461;DHT22;6757;52.258;12.840;2022-11-25T02:44:01;2.00;99.90
7461;DHT22;6757;52.258;12.840;2022-11-25T02:46:29;2.00;99.90
7461;DHT22;6757;52.258;12.840;2022-11-25T02:48:58;2.00;99.90
7461;DHT22;6757;52.258;12.840;2022-11-25T02:51:27;1.90;99.90
7461;DHT22;6757;52.258;12.840;2022-11-25T02:53:56;1.90;99.90
7461;DHT22;6757;52.258;12.840;2022-11-25T02:56:25;1.90;99.90
7461;DHT22;6757;52.258;12.840;2022-11-25T02:58:53;1.90;99.90
7461;DHT22;6757;52.258;12.840;2022-11-25T03:01:22;1.90;99.90
7461;DHT22;6757;52.258;12.840;2022-11-25T03:03:49;2.00;99.90
7461;DHT22;6757;52.258;12.840;2022-11-25T03:06:16;2.00;99.90
7461;DHT22;6757;52.258;12.840;2022-11-25T03:08:43;2.00;99.90
7461;DHT22;6757;52.258;12.840;2022-11-25T03:11:10;2.00;99.90
7461;DHT22;6757;52.258;12.840;2022-11-25T03:13:37;2.00;99.90
7461;DHT22;6757;52.258;12.840;2022-11-25T03:16:04;2.00;99.90
7461;DHT22;6757;52.258;12.840;2022-11-25T03:18:33;2.00;99.90
7461;DHT22;6757;52.258;12.840;2022-11-25T03:21:00;2.10;99.90
7461;DHT22;6757;52.258;12.840;2022-11-25T03:23:29;2.10;99.90
7461;DHT22;6757;52.258;12.840;2022-11-25T03:25:56;2.10;99.90
7461;DHT22;6757;52.258;12.840;2022-11-25T03:28:22;2.10;99.90
7461;DHT22;6757;52.258;12.840;2022-11-25T03:30:49;2.10;99.90
7461;DHT22;6757;52.258;12.840;2022-11-25T03:33:16;2.30;99.90
7461;DHT22;6757;52.258;12.840;2022-11-25T03:35:44;2.20;99.90
7461;DHT22;6757;52.258;12.840;2022-11-25T03:38:13;2.10;99.90
7461;DHT22;6757;52.258;12.840;2022-11-25T03:40:40;2.20;99.90
7461;DHT22;6757;52.258;12.840;2022-11-25T03:43:07;2.20;99.90
7461;DHT22;6757;52.258;12.840;2022-11-25T03:45:34;2.20;99.90
7461;DHT22;6757;52.258;12.840;2022-11-25T03:48:01;2.20;99.90
7461;DHT22;6757;52.258;12.840;2022-11-25T03:50:28;2.20;99.90
7461;DHT22;6757;52.258;12.840;2022-11-25T03:52:56;2.20;99.90
7461;DHT22;6757;52.258;12.840;2022-11-25T03:55:23;2.20;99.90
7461;DHT22;6757;52.258;12.840;2022-11-25T03:57:50;2.20;99.90
7461;DHT22;6757;52.258;12.840;2022-11-25T04:00:17;2.20;99.90
7461;DHT22;6757;52.258;12.840;2022-11-25T04:02:44;2.20;99.90
7461;DHT22;6757;52.258;12.840;2022-11-25T04:05:11;2.20;99.90
7461;DHT22;6757;52.258;12.840;2022-11-25T04:07:38;2.20;99.90
7461;DHT22;6757;52.258;12.840;2022-11-25T04:10:07;2.20;99.90
7461;DHT22;6757;52.258;12.840;2022-11-25T04:12:35;2.20;99.90
7461;DHT22;6757;52.258;12.840;2022-11-25T04:15:14;2.20;99.90
7461;DHT22;6757;52.258;12.840;2022-11-25T04:17:42;2.20;99.90
7461;DHT22;6757;52.258;12.840;2022-11-25T04:20:11;2.20;99.90
7461;DHT22;6757;52.258;12.840;2022-11-25T04:22:38;2.20;99.90
7461;DHT22;6757;52.258;12.840;2022-11-25T04:25:08;2.20;99.90
7461;DHT22;6757;52.258;12.840;2022-11-25T04:27:35;2.10;99.90
7461;DHT22;6757;52.258;12.840;2022-11-25T04:30:02;2.10;99.90
7461;DHT22;6757;52.258;12.840;2022-11-25T04:32:29;2.10;99.90
7461;DHT22;6757;52.258;12.840;2022-11-25T04:34:56;2.00;99.90
7461;DHT22;6757;52.258;12.840;2022-11-25T04:37:23;2.00;99.90
7461;DHT22;6757;52.258;12.840;2022-11-25T04:39:50;2.00;99.90
7461;DHT22;6757;52.258;12.840;2022-11-25T04:42:18;1.90;99.90
7461;DHT22;6757;52.258;12.840;2022-11-25T04:44:59;1.90;99.90
7461;DHT22;6757;52.258;12.840;2022-11-25T04:47:27;1.80;99.90
7461;DHT22;6757;52.258;12.840;2022-11-25T04:49:54;1.80;99.90
7461;DHT22;6757;52.258;12.840;2022-11-25T04:52:21;1.70;99.90
7461;DHT22;6757;52.258;12.840;2022-11-25T04:54:48;1.70;99.90
7461;DHT22;6757;52.258;12.840;2022-11-25T04:57:15;1.60;99.90
7461;DHT22;6757;52.258;12.840;2022-11-25T04:59:44;1.60;99.90
7461;DHT22;6757;52.258;12.840;2022-11-25T05:02:13;1.50;99.90
7461;DHT22;6757;52.258;12.840;2022-11-25T05:04:42;1.50;99.90
7461;DHT22;6757;52.258;12.840;2022-11-25T05:07:11;1.50;99.90
7461;DHT22;6757;52.258;12.840;2022-11-25T05:09:39;1.40;99.90
7461;DHT22;6757;52.258;12.840;2022-11-25T05:12:07;1.40;99.90
7461;DHT22;6757;52.258;12.840;2022-11-25T05:14:36;1.30;99.90
7461;DHT22;6757;52.258;12.840;2022-11-25T05:17:05;1.30;99.90
7461;DHT22;6757;52.258;12.840;2022-11-25T05:19:33;1.20;99.90
7461;DHT22;6757;52.258;12.840;2022-11-25T05:22:01;1.20;99.90
7461;DHT22;6757;52.258;12.840;2022-11-25T05:24:28;1.20;99.90
7461;DHT22;6757;52.258;12.840;2022-11-25T05:26:54;1.10;99.90
7461;DHT22;6757;52.258;12.840;2022-11-25T05:29:21;1.10;99.90
7461;DHT22;6757;52.258;12.840;2022-11-25T05:31:48;1.10;99.90
7461;DHT22;6757;52.258;12.840;2022-11-25T05:34:17;1.00;99.90
7461;DHT22;6757;52.258;12.840;2022-11-25T05:36:43;1.00;99.90
7461;DHT22;6757;52.258;12.840;2022-11-25T05:39:10;1.00;99.90
7461;DHT22;6757;52.258;12.840;2022-11-25T05:41:37;1.00;99.90
7461;DHT22;6757;52.258;12.840;2022-11-25T05:44:04;1.00;99.90
7461;DHT22;6757;52.258;12.840;2022-11-25T05:46:35;0.90;99.90
7461;DHT22;6757;52.258;12.840;2022-11-25T05:49:05;0.90;99.90
7461;DHT22;6757;52.258;12.840;2022-11-25T05:51:34;0.90;99.90
7461;DHT22;6757;52.258;12.840;2022-11-25T05:54:01;0.90;99.90
7461;DHT22;6757;52.258;12.840;2022-11-25T05:56:28;0.90;99.90
7461;DHT22;6757;52.258;12.840;2022-11-25T05:58:57;0.80;99.90
7461;DHT22;6757;52.258;12.840;2022-11-25T06:01:24;0.80;99.90
7461;DHT22;6757;52.258;12.840;2022-11-25T06:03:51;0.80;99.90
7461;DHT22;6757;52.258;12.840;2022-11-25T06:06:19;0.80;99.90
7461;DHT22;6757;52.258;12.840;2022-11-25T06:08:47;0.80;99.90
7461;DHT22;6757;52.258;12.840;2022-11-25T06:11:16;0.80;99.90
7461;DHT22;6757;52.258;12.840;2022-11-25T06:13:43;0.80;99.90
7461;DHT22;6757;52.258;12.840;2022-11-25T06:16:12;0.80;99.90
7461;DHT22;6757;52.258;12.840;2022-11-25T06:18:40;0.80;99.90
7461;DHT22;6757;52.258;12.840;2022-11-25T06:21:08;0.80;99.90
7461;DHT22;6757;52.258;12.840;2022-11-25T06:23:36;0.80;99.90
7461;DHT22;6757;52.258;12.840;2022-11-25T06:26:06;0.80;99.90
7461;DHT22;6757;52.258;12.840;2022-11-25T06:28:36;0.80;99.90
7461;DHT22;6757;52.258;12.840;2022-11-25T06:31:04;0.80;99.90
7461;DHT22;6757;52.258;12.840;2022-11-25T06:33:32;0.80;99.90
7461;DHT22;6757;52.258;12.840;2022-11-25T06:36:01;0.80;99.90
7461;DHT22;6757;52.258;12.840;2022-11-25T06:38:29;0.80;99.90
7461;DHT22;6757;52.258;12.840;2022-11-25T06:41:00;0.80;99.90
7461;DHT22;6757;52.258;12.840;2022-11-25T06:43:29;0.80;99.90
7461;DHT22;6757;52.258;12.840;2022-11-25T06:46:01;0.80;99.90
7461;DHT22;6757;52.258;12.840;2022-11-25T06:48:29;0.80;99.90
7461;DHT22;6757;52.258;12.840;2022-11-25T06:50:56;0.80;99.90
7461;DHT22;6757;52.258;12.840;2022-11-25T06:53:24;0.80;99.90
7461;DHT22;6757;52.258;12.840;2022-11-25T06:56:06;0.80;99.90
7461;DHT22;6757;52.258;12.840;2022-11-25T06:58:36;0.80;99.90
7461;DHT22;6757;52.258;12.840;2022-11-25T07:01:05;0.80;99.90
7461;DHT22;6757;52.258;12.840;2022-11-25T07:03:33;0.80;99.90
7461;DHT22;6757;52.258;12.840;2022-11-25T07:06:00;0.80;99.90
7461;DHT22;6757;52.258;12.840;2022-11-25T07:08:27;0.80;99.90
7461;DHT22;6757;52.258;12.840;2022-11-25T07:10:55;0.80;99.90
7461;DHT22;6757;52.258;12.840;2022-11-25T07:13:23;0.70;99.90
7461;DHT22;6757;52.258;12.840;2022-11-25T07:15:51;0.70;99.90
7461;DHT22;6757;52.258;12.840;2022-11-25T07:18:18;0.70;99.90
7461;DHT22;6757;52.258;12.840;2022-11-25T07:20:45;0.70;99.90
7461;DHT22;6757;52.258;12.840;2022-11-25T07:23:12;0.70;99.90
7461;DHT22;6757;52.258;12.840;2022-11-25T07:25:39;0.70;99.90
7461;DHT22;6757;52.258;12.840;2022-11-25T07:28:06;0.70;99.90
7461;DHT22;6757;52.258;12.840;2022-11-25T07:30:32;0.70;99.90
7461;DHT22;6757;52.258;12.840;2022-11-25T07:33:01;0.70;99.90
7461;DHT22;6757;52.258;12.840;2022-11-25T07:35:28;0.70;99.90
7461;DHT22;6757;52.258;12.840;2022-11-25T07:37:55;0.80;99.90
7461;DHT22;6757;52.258;12.840;2022-11-25T07:40:22;0.80;99.90
7461;DHT22;6757;52.258;12.840;2022-11-25T07:42:49;0.90;99.90
7461;DHT22;6757;52.258;12.840;2022-11-25T07:45:16;0.90;99.90
7461;DHT22;6757;52.258;12.840;2022-11-25T07:47:52;1.00;99.90
7461;DHT22;6757;52.258;12.840;2022-11-25T07:53:21;1.00;99.90
7461;DHT22;6757;52.258;12.840;2022-11-25T07:55:48;1.10;99.90
7461;DHT22;6757;52.258;12.840;2022-11-25T07:58:15;1.10;99.90
7461;DHT22;6757;52.258;12.840;2022-11-25T08:00:42;1.10;99.90
7461;DHT22;6757;52.258;12.840;2022-11-25T08:03:09;1.20;99.90
7461;DHT22;6757;52.258;12.840;2022-11-25T08:05:36;1.20;99.90
7461;DHT22;6757;52.258;12.840;2022-11-25T08:08:04;1.20;99.90
7461;DHT22;6757;52.258;12.840;2022-11-25T08:10:31;1.20;99.90
7461;DHT22;6757;52.258;12.840;2022-11-25T08:12:58;1.30;99.90
7461;DHT22;6757;52.258;12.840;2022-11-25T08:15:26;1.30;99.90
7461;DHT22;6757;52.258;12.840;2022-11-25T08:17:53;1.30;99.90
7461;DHT22;6757;52.258;12.840;2022-11-25T08:20:20;1.40;99.90
7461;DHT22;6757;52.258;12.840;2022-11-25T08:22:48;1.40;99.90
7461;DHT22;6757;52.258;12.840;2022-11-25T08:25:17;1.60;99.90
7461;DHT22;6757;52.258;12.840;2022-11-25T08:27:43;1.70;99.90
7461;DHT22;6757;52.258;12.840;2022-11-25T08:30:12;1.80;99.90
7461;DHT22;6757;52.258;12.840;2022-11-25T08:32:39;1.90;99.90
7461;DHT22;6757;52.258;12.840;2022-11-25T08:35:07;1.90;99.90
7461;DHT22;6757;52.258;12.840;2022-11-25T08:37:36;1.90;99.90
7461;DHT22;6757;52.258;12.840;2022-11-25T08:40:04;1.90;99.90
7461;DHT22;6757;52.258;12.840;2022-11-25T08:42:33;1.90;99.90
7461;DHT22;6757;52.258;12.840;2022-11-25T08:45:00;1.90;99.90
7461;DHT22;6757;52.258;12.840;2022-11-25T08:47:26;1.90;99.90
7461;DHT22;6757;52.258;12.840;2022-11-25T08:49:54;1.90;99.90
7461;DHT22;6757;52.258;12.840;2022-11-25T08:52:21;2.00;99.90
7461;DHT22;6757;52.258;12.840;2022-11-25T08:54:48;2.00;99.90
7461;DHT22;6757;52.258;12.840;2022-11-25T08:57:15;2.10;99.90
7461;DHT22;6757;52.258;12.840;2022-11-25T08:59:44;2.10;99.90
7461;DHT22;6757;52.258;12.840;2022-11-25T09:02:14;2.20;99.90
7461;DHT22;6757;52.258;12.840;2022-11-25T09:04:42;2.30;99.90
7461;DHT22;6757;52.258;12.840;2022-11-25T09:07:09;2.40;99.90
7461;DHT22;6757;52.258;12.840;2022-11-25T09:09:36;2.50;99.90
7461;DHT22;6757;52.258;12.840;2022-11-25T09:12:03;2.50;99.90
7461;DHT22;6757;52.258;12.840;2022-11-25T09:14:31;2.70;99.90
7461;DHT22;6757;52.258;12.840;2022-11-25T09:16:59;2.80;99.90
7461;DHT22;6757;52.258;12.840;2022-11-25T09:19:27;2.90;99.90
7461;DHT22;6757;52.258;12.840;2022-11-25T09:21:54;3.00;99.90
7461;DHT22;6757;52.258;12.840;2022-11-25T09:24:20;3.20;99.90
7461;DHT22;6757;52.258;12.840;2022-11-25T09:26:47;3.40;99.90
7461;DHT22;6757;52.258;12.840;2022-11-25T09:29:15;3.50;99.90
7461;DHT22;6757;52.258;12.840;2022-11-25T09:31:52;3.60;99.90
7461;DHT22;6757;52.258;12.840;2022-11-25T09:34:20;3.70;99.90
7461;DHT22;6757;52.258;12.840;2022-11-25T09:36:47;3.80;99.90
7461;DHT22;6757;52.258;12.840;2022-11-25T09:39:19;3.90;99.90
7461;DHT22;6757;52.258;12.840;2022-11-25T09:42:05;4.00;99.90
7461;DHT22;6757;52.258;12.840;2022-11-25T09:45:05;4.10;99.90
7461;DHT22;6757;52.258;12.840;2022-11-25T09:48:08;4.20;99.90
7461;DHT22;6757;52.258;12.840;2022-11-25T09:50:53;4.30;99.90
7461;DHT22;6757;52.258;12.840;2022-11-25T09:53:37;4.40;99.90
7461;DHT22;6757;52.258;12.840;2022-11-25T09:56:13;4.50;99.90
7461;DHT22;6757;52.258;12.840;2022-11-25T09:58:52;4.50;99.90
7461;DHT22;6757;52.258;12.840;2022-11-25T10:01:24;4.60;99.90
7461;DHT22;6757;52.258;12.840;2022-11-25T10:03:55;4.70;99.90
7461;DHT22;6757;52.258;12.840;2022-11-25T10:06:29;4.80;99.90
7461;DHT22;6757;52.258;12.840;2022-11-25T10:09:00;4.90;99.90
7461;DHT22;6757;52.258;12.840;2022-11-25T10:11:40;5.00;99.90
7461;DHT22;6757;52.258;12.840;2022-11-25T10:14:20;5.10;99.90
7461;DHT22;6757;52.258;12.840;2022-11-25T10:16:59;5.10;99.90
7461;DHT22;6757;52.258;12.840;2022-11-25T10:19:38;5.20;99.90
7461;DHT22;6757;52.258;12.840;2022-11-25T10:22:21;5.30;99.90
7461;DHT22;6757;52.258;12.840;2022-11-25T10:24:52;5.30;99.90
7461;DHT22;6757;52.258;12.840;2022-11-25T10:27:25;5.40;99.90
7461;DHT22;6757;52.258;12.840;2022-11-25T10:30:02;5.40;99.90
7461;DHT22;6757;52.258;12.840;2022-11-25T10:32:39;5.50;99.90
7461;DHT22;6757;52.258;12.840;2022-11-25T10:35:17;5.60;99.90
7461;DHT22;6757;52.258;12.840;2022-11-25T10:37:51;5.60;99.90
7461;DHT22;6757;52.258;12.840;2022-11-25T10:40:20;5.60;99.90
7461;DHT22;6757;52.258;12.840;2022-11-25T10:42:48;5.70;99.90
7461;DHT22;6757;52.258;12.840;2022-11-25T10:45:15;5.80;99.90
7461;DHT22;6757;52.258;12.840;2022-11-25T10:47:54;5.90;99.90
7461;DHT22;6757;52.258;12.840;2022-11-25T10:50:35;6.00;99.90
7461;DHT22;6757;52.258;12.840;2022-11-25T10:53:12;6.20;99.90
7461;DHT22;6757;52.258;12.840;2022-11-25T10:55:57;7.50;99.90
7461;DHT22;6757;52.258;12.840;2022-11-25T10:58:28;6.50;99.90
7461;DHT22;6757;52.258;12.840;2022-11-25T11:01:14;6.70;99.90
7461;DHT22;6757;52.258;12.840;2022-11-25T11:03:45;6.70;99.90
7461;DHT22;6757;52.258;12.840;2022-11-25T11:06:30;6.90;99.90
7461;DHT22;6757;52.258;12.840;2022-11-25T11:09:00;7.00;99.90
7461;DHT22;6757;52.258;12.840;2022-11-25T11:11:27;7.20;99.90
7461;DHT22;6757;52.258;12.840;2022-11-25T11:14:10;7.20;99.90
7461;DHT22;6757;52.258;12.840;2022-11-25T11:16:41;7.20;99.90
7461;DHT22;6757;52.258;12.840;2022-11-25T11:19:23;7.40;99.90
7461;DHT22;6757;52.258;12.840;2022-11-25T11:21:52;7.30;99.90
7461;DHT22;6757;52.258;12.840;2022-11-25T11:24:27;7.30;99.90
7461;DHT22;6757;52.258;12.840;2022-11-25T11:27:06;7.30;99.90
7461;DHT22;6757;52.258;12.840;2022-11-25T11:29:41;7.30;99.90
7461;DHT22;6757;52.258;12.840;2022-11-25T11:32:19;7.40;99.90
7461;DHT22;6757;52.258;12.840;2022-11-25T11:34:57;7.40;99.90
7461;DHT22;6757;52.258;12.840;2022-11-25T11:37:38;7.40;99.90
7461;DHT22;6757;52.258;12.840;2022-11-25T11:40:23;7.50;99.90
7461;DHT22;6757;52.258;12.840;2022-11-25T11:43:05;8.60;99.90
7461;DHT22;6757;52.258;12.840;2022-11-25T11:45:56;7.70;99.90
7461;DHT22;6757;52.258;12.840;2022-11-25T11:48:35;7.80;99.90
7461;DHT22;6757;52.258;12.840;2022-11-25T11:51:11;7.90;99.90
7461;DHT22;6757;52.258;12.840;2022-11-25T11:53:50;8.10;99.90
7461;DHT22;6757;52.258;12.840;2022-11-25T11:56:30;8.10;99.90
7461;DHT22;6757;52.258;12.840;2022-11-25T11:59:25;8.10;99.90
7461;DHT22;6757;52.258;12.840;2022-11-25T12:05:13;8.30;99.90
7461;DHT22;6757;52.258;12.840;2022-11-25T12:07:50;8.40;99.90
7461;DHT22;6757;52.258;12.840;2022-11-25T12:10:26;8.50;99.90
7461;DHT22;6757;52.258;12.840;2022-11-25T12:13:04;8.70;99.90
7461;DHT22;6757;52.258;12.840;2022-11-25T12:15:42;8.80;99.90
7461;DHT22;6757;52.258;12.840;2022-11-25T12:18:19;8.90;99.90
7461;DHT22;6757;52.258;12.840;2022-11-25T12:21:00;9.10;99.90
7461;DHT22;6757;52.258;12.840;2022-11-25T12:23:37;9.40;99.90
7461;DHT22;6757;52.258;12.840;2022-11-25T12:26:11;9.60;99.90
7461;DHT22;6757;52.258;12.840;2022-11-25T12:28:46;9.70;99.90
7461;DHT22;6757;52.258;12.840;2022-11-25T12:31:21;9.80;99.90
7461;DHT22;6757;52.258;12.840;2022-11-25T12:33:58;9.80;99.90
7461;DHT22;6757;52.258;12.840;2022-11-25T12:36:31;9.90;99.90
7461;DHT22;6757;52.258;12.840;2022-11-25T12:39:03;9.80;99.90
7461;DHT22;6757;52.258;12.840;2022-11-25T12:41:39;9.90;99.90
7461;DHT22;6757;52.258;12.840;2022-11-25T12:44:13;9.90;99.90
7461;DHT22;6757;52.258;12.840;2022-11-25T12:46:45;9.90;99.90
7461;DHT22;6757;52.258;12.840;2022-11-25T12:49:17;9.80;99.90
7461;DHT22;6757;52.258;12.840;2022-11-25T12:51:59;9.70;99.90
7461;DHT22;6757;52.258;12.840;2022-11-25T12:54:59;9.60;99.90
7461;DHT22;6757;52.258;12.840;2022-11-25T12:58:09;9.40;99.90
7461;DHT22;6757;52.258;12.840;2022-11-25T13:01:36;9.30;99.90
7461;DHT22;6757;52.258;12.840;2022-11-25T13:04:31;9.20;99.90
7461;DHT22;6757;52.258;12.840;2022-11-25T13:07:23;9.00;99.90
7461;DHT22;6757;52.258;12.840;2022-11-25T13:10:07;8.90;99.90
7461;DHT22;6757;52.258;12.840;2022-11-25T13:12:49;8.80;99.90
7461;DHT22;6757;52.258;12.840;2022-11-25T13:15:25;8.80;99.90
7461;DHT22;6757;52.258;12.840;2022-11-25T13:17:57;8.70;99.90
7461;DHT22;6757;52.258;12.840;2022-11-25T13:20:34;8.70;99.90
7461;DHT22;6757;52.258;12.840;2022-11-25T13:23:07;8.70;99.90
7461;DHT22;6757;52.258;12.840;2022-11-25T13:25:40;8.80;99.90
7461;DHT22;6757;52.258;12.840;2022-11-25T13:28:28;8.80;99.90
7461;DHT22;6757;52.258;12.840;2022-11-25T13:31:16;8.80;99.90
7461;DHT22;6757;52.258;12.840;2022-11-25T13:34:06;8.80;99.90
7461;DHT22;6757;52.258;12.840;2022-11-25T13:36:45;8.80;99.90
7461;DHT22;6757;52.258;12.840;2022-11-25T13:39:15;8.70;99.90
7461;DHT22;6757;52.258;12.840;2022-11-25T13:41:48;8.70;99.90
7461;DHT22;6757;52.258;12.840;2022-11-25T13:44:28;8.70;99.90
7461;DHT22;6757;52.258;12.840;2022-11-25T13:49:53;8.60;99.90
7461;DHT22;6757;52.258;12.840;2022-11-25T13:52:31;8.60;99.90
7461;DHT22;6757;52.258;12.840;2022-11-25T13:55:08;8.50;99.90
7461;DHT22;6757;52.258;12.840;2022-11-25T13:57:58;8.50;99.90
7461;DHT22;6757;52.258;12.840;2022-11-25T14:00:49;8.40;99.90
7461;DHT22;6757;52.258;12.840;2022-11-25T14:03:59;8.40;99.90
7461;DHT22;6757;52.258;12.840;2022-11-25T14:07:07;8.30;99.90
7461;DHT22;6757;52.258;12.840;2022-11-25T14:09:59;8.20;99.90
7461;DHT22;6757;52.258;12.840;2022-11-25T14:12:48;8.10;99.90
7461;DHT22;6757;52.258;12.840;2022-11-25T14:15:33;8.10;99.90
7461;DHT22;6757;52.258;12.840;2022-11-25T14:21:11;7.90;99.90
7461;DHT22;6757;52.258;12.840;2022-11-25T14:24:06;7.90;99.90
7461;DHT22;6757;52.258;12.840;2022-11-25T14:26:40;7.80;99.90
7461;DHT22;6757;52.258;12.840;2022-11-25T14:29:12;7.80;99.90
7461;DHT22;6757;52.258;12.840;2022-11-25T14:31:44;7.70;99.90
7461;DHT22;6757;52.258;12.840;2022-11-25T14:34:16;7.60;99.90
7461;DHT22;6757;52.258;12.840;2022-11-25T14:36:50;7.60;99.90
7461;DHT22;6757;52.258;12.840;2022-11-25T14:39:25;7.50;99.90
7461;DHT22;6757;52.258;12.840;2022-11-25T14:42:01;7.40;99.90
7461;DHT22;6757;52.258;12.840;2022-11-25T14:44:33;7.40;99.90
7461;DHT22;6757;52.258;12.840;2022-11-25T14:47:04;7.30;99.90
7461;DHT22;6757;52.258;12.840;2022-11-25T14:49:43;7.20;99.90
7461;DHT22;6757;52.258;12.840;2022-11-25T14:52:16;7.20;99.90
7461;DHT22;6757;52.258;12.840;2022-11-25T14:54:46;7.10;99.90
7461;DHT22;6757;52.258;12.840;2022-11-25T14:57:18;7.10;99.90
7461;DHT22;6757;52.258;12.840;2022-11-25T14:59:46;7.10;99.90
7461;DHT22;6757;52.258;12.840;2022-11-25T15:02:24;7.00;99.90
7461;DHT22;6757;52.258;12.840;2022-11-25T15:04:54;7.00;99.90
7461;DHT22;6757;52.258;12.840;2022-11-25T15:07:27;6.90;99.90
7461;DHT22;6757;52.258;12.840;2022-11-25T15:09:55;6.90;99.90
7461;DHT22;6757;52.258;12.840;2022-11-25T15:12:27;6.90;99.90
7461;DHT22;6757;52.258;12.840;2022-11-25T15:14:57;7.30;99.90
7461;DHT22;6757;52.258;12.840;2022-11-25T15:17:26;6.80;99.90
7461;DHT22;6757;52.258;12.840;2022-11-25T15:19:57;6.80;99.90
7461;DHT22;6757;52.258;12.840;2022-11-25T15:22:25;6.80;99.90
7461;DHT22;6757;52.258;12.840;2022-11-25T15:25:05;6.80;99.90
7461;DHT22;6757;52.258;12.840;2022-11-25T15:27:33;6.80;99.90
7461;DHT22;6757;52.258;12.840;2022-11-25T15:30:00;6.80;99.90
7461;DHT22;6757;52.258;12.840;2022-11-25T15:32:30;6.80;99.90
7461;DHT22;6757;52.258;12.840;2022-11-25T15:34:59;6.70;99.90
7461;DHT22;6757;52.258;12.840;2022-11-25T15:37:27;6.70;99.90
7461;DHT22;6757;52.258;12.840;2022-11-25T15:42:57;6.70;99.90
7461;DHT22;6757;52.258;12.840;2022-11-25T15:45:31;6.70;99.90
7461;DHT22;6757;52.258;12.840;2022-11-25T15:48:02;6.70;99.90
7461;DHT22;6757;52.258;12.840;2022-11-25T15:50:29;6.70;99.90
7461;DHT22;6757;52.258;12.840;2022-11-25T15:52:59;6.70;99.90
7461;DHT22;6757;52.258;12.840;2022-11-25T15:55:31;6.70;99.90
7461;DHT22;6757;52.258;12.840;2022-11-25T15:58:02;6.70;99.90
7461;DHT22;6757;52.258;12.840;2022-11-25T16:00:31;6.70;99.90
7461;DHT22;6757;52.258;12.840;2022-11-25T16:02:58;6.60;99.90
7461;DHT22;6757;52.258;12.840;2022-11-25T16:05:34;6.60;99.90
7461;DHT22;6757;52.258;12.840;2022-11-25T16:08:22;6.60;99.90
7461;DHT22;6757;52.258;12.840;2022-11-25T16:10:55;6.60;99.90
7461;DHT22;6757;52.258;12.840;2022-11-25T16:13:31;6.50;99.90
7461;DHT22;6757;52.258;12.840;2022-11-25T16:16:10;6.50;99.90
7461;DHT22;6757;52.258;12.840;2022-11-25T16:18:42;6.50;99.90
7461;DHT22;6757;52.258;12.840;2022-11-25T16:21:17;6.50;99.90
7461;DHT22;6757;52.258;12.840;2022-11-25T16:23:48;6.50;99.90
7461;DHT22;6757;52.258;12.840;2022-11-25T16:26:21;6.50;99.90
7461;DHT22;6757;52.258;12.840;2022-11-25T16:28:53;6.40;99.90
7461;DHT22;6757;52.258;12.840;2022-11-25T16:31:21;6.40;99.90
7461;DHT22;6757;52.258;12.840;2022-11-25T16:33:49;6.40;99.90
7461;DHT22;6757;52.258;12.840;2022-11-25T16:36:18;6.30;99.90
7461;DHT22;6757;52.258;12.840;2022-11-25T16:38:50;6.30;99.90
7461;DHT22;6757;52.258;12.840;2022-11-25T16:41:21;6.30;99.90
7461;DHT22;6757;52.258;12.840;2022-11-25T16:43:50;6.30;99.90
7461;DHT22;6757;52.258;12.840;2022-11-25T16:46:18;6.30;99.90
7461;DHT22;6757;52.258;12.840;2022-11-25T16:48:46;6.30;99.90